sensor_id;sensor_type;location;lat;lon;timestamp;temperature;humidity
56076;DHT22;41951;49.022;12.066;2023-01-09T00:01:16;4.20;99.90
56076;DHT22;41951;49.022;12.066;2023-01-09T00:03:41;4.20;99.90
56076;DHT22;41951;49.022;12.066;2023-01-09T00:06:07;4.20;99.90
56076;DHT22;41951;49.022;12.066;2023-01-09T00:08:32;4.10;99.90
56076;DHT22;41951;49.022;12.066;2023-01-09T00:10:58;4.20;99.90
56076;DHT22;41951;49.022;12.066;2023-01-09T00:13:23;4.20;99.90
56076;DHT22;41951;49.022;12.066;2023-01-09T00:15:49;4.20;99.90
56076;DHT22;41951;49.022;12.066;2023-01-09T00:18:15;4.20;99.90
56076;DHT22;41951;49.022;12.066;2023-01-09T00:20:40;4.20;99.90
56076;DHT22;41951;49.022;12.066;2023-01-09T00:23:06;4.20;99.90
56076;DHT22;41951;49.022;12.066;2023-01-09T00:25:32;4.20;99.90
56076;DHT22;41951;49.022;12.066;2023-01-09T00:27:58;4.20;99.90
56076;DHT22;41951;49.022;12.066;2023-01-09T00:30:23;4.20;99.90
56076;DHT22;41951;49.022;12.066;2023-01-09T00:32:49;4.20;99.90
56076;DHT22;41951;49.022;12.066;2023-01-09T00:35:16;4.20;99.90
56076;DHT22;41951;49.022;12.066;2023-01-09T00:37:42;4.20;99.90
56076;DHT22;41951;49.022;12.066;2023-01-09T00:40:09;4.20;99.90
56076;DHT22;41951;49.022;12.066;2023-01-09T00:42:35;4.20;99.90
56076;DHT22;41951;49.022;12.066;2023-01-09T00:45:08;4.30;99.90
56076;DHT22;41951;49.022;12.066;2023-01-09T00:47:38;4.30;99.90
56076;DHT22;41951;49.022;12.066;2023-01-09T00:50:09;4.30;99.90
56076;DHT22;41951;49.022;12.066;2023-01-09T00:52:37;4.30;99.90
56076;DHT22;41951;49.022;12.066;2023-01-09T00:55:04;4.40;99.90
56076;DHT22;41951;49.022;12.066;2023-01-09T00:57:30;4.30;99.90
56076;DHT22;41951;49.022;12.066;2023-01-09T00:59:56;4.30;99.90
56076;DHT22;41951;49.022;12.066;2023-01-09T01:02:22;4.20;99.90
56076;DHT22;41951;49.022;12.066;2023-01-09T01:04:48;4.80;99.90
56076;DHT22;41951;49.022;12.066;2023-01-09T01:07:32;4.20;99.90
56076;DHT22;41951;49.022;12.066;2023-01-09T01:10:05;4.20;99.90
56076;DHT22;41951;49.022;12.066;2023-01-09T01:12:31;4.30;99.90
56076;DHT22;41951;49.022;12.066;2023-01-09T01:14:57;4.30;99.90
56076;DHT22;41951;49.022;12.066;2023-01-09T01:17:22;4.30;99.90
56076;DHT22;41951;49.022;12.066;2023-01-09T01:19:48;4.30;99.90
56076;DHT22;41951;49.022;12.066;2023-01-09T01:22:14;4.40;99.90
56076;DHT22;41951;49.022;12.066;2023-01-09T01:24:39;4.40;99.90
56076;DHT22;41951;49.022;12.066;2023-01-09T01:27:05;4.30;99.90
56076;DHT22;41951;49.022;12.066;2023-01-09T01:29:30;4.30;99.90
56076;DHT22;41951;49.022;12.066;2023-01-09T01:31:56;4.30;99.90
56076;DHT22;41951;49.022;12.066;2023-01-09T01:34:21;4.20;99.90
56076;DHT22;41951;49.022;12.066;2023-01-09T01:36:47;4.30;99.90
56076;DHT22;41951;49.022;12.066;2023-01-09T01:39:12;4.30;99.90
56076;DHT22;41951;49.022;12.066;2023-01-09T01:41:38;4.30;99.90
56076;DHT22;41951;49.022;12.066;2023-01-09T01:46:52;4.20;99.90
56076;DHT22;41951;49.022;12.066;2023-01-09T01:49:18;4.20;99.90
56076;DHT22;41951;49.022;12.066;2023-01-09T01:51:48;4.20;99.90
56076;DHT22;41951;49.022;12.066;2023-01-09T01:54:25;4.20;99.90
56076;DHT22;41951;49.022;12.066;2023-01-09T01:56:55;4.20;99.90
56076;DHT22;41951;49.022;12.066;2023-01-09T01:59:25;4.10;99.90
56076;DHT22;41951;49.022;12.066;2023-01-09T02:01:54;4.20;99.90
56076;DHT22;41951;49.022;12.066;2023-01-09T02:04:20;4.20;99.90
56076;DHT22;41951;49.022;12.066;2023-01-09T02:06:48;4.20;99.90
56076;DHT22;41951;49.022;12.066;2023-01-09T02:09:14;4.20;99.90
56076;DHT22;41951;49.022;12.066;2023-01-09T02:11:46;4.30;99.90
56076;DHT22;41951;49.022;12.066;2023-01-09T02:14:13;4.30;99.90
56076;DHT22;41951;49.022;12.066;2023-01-09T02:17:07;4.30;99.90
56076;DHT22;41951;49.022;12.066;2023-01-09T02:20:20;4.30;99.90
56076;DHT22;41951;49.022;12.066;2023-01-09T02:29:13;4.30;99.90
56076;DHT22;41951;49.022;12.066;2023-01-09T02:37:16;4.40;99.90
56076;DHT22;41951;49.022;12.066;2023-01-09T02:40:00;4.30;99.90
56076;DHT22;41951;49.022;12.066;2023-01-09T02:42:28;4.30;99.90
56076;DHT22;41951;49.022;12.066;2023-01-09T02:44:54;4.30;99.90
56076;DHT22;41951;49.022;12.066;2023-01-09T02:50:01;4.30;99.90
56076;DHT22;41951;49.022;12.066;2023-01-09T02:52:48;4.30;99.90
56076;DHT22;41951;49.022;12.066;2023-01-09T02:58:40;4.30;99.90
56076;DHT22;41951;49.022;12.066;2023-01-09T03:03:38;4.30;99.90
56076;DHT22;41951;49.022;12.066;2023-01-09T03:09:02;4.30;99.90
56076;DHT22;41951;49.022;12.066;2023-01-09T03:11:33;4.30;99.90
56076;DHT22;41951;49.022;12.066;2023-01-09T03:14:08;4.40;99.90
56076;DHT22;41951;49.022;12.066;2023-01-09T03:16:36;4.40;99.90
56076;DHT22;41951;49.022;12.066;2023-01-09T03:19:06;4.40;99.90
56076;DHT22;41951;49.022;12.066;2023-01-09T03:21:33;4.30;99.90
56076;DHT22;41951;49.022;12.066;2023-01-09T03:24:00;4.30;99.90
56076;DHT22;41951;49.022;12.066;2023-01-09T03:26:27;4.30;99.90
56076;DHT22;41951;49.022;12.066;2023-01-09T03:28:57;4.30;99.90
56076;DHT22;41951;49.022;12.066;2023-01-09T03:31:22;4.30;99.90
56076;DHT22;41951;49.022;12.066;2023-01-09T03:33:48;4.30;99.90
56076;DHT22;41951;49.022;12.066;2023-01-09T03:36:15;4.30;99.90
56076;DHT22;41951;49.022;12.066;2023-01-09T03:38:42;4.30;99.90
56076;DHT22;41951;49.022;12.066;2023-01-09T03:41:07;4.30;99.90
56076;DHT22;41951;49.022;12.066;2023-01-09T03:43:33;4.30;99.90
56076;DHT22;41951;49.022;12.066;2023-01-09T03:45:59;4.30;99.90
56076;DHT22;41951;49.022;12.066;2023-01-09T03:48:25;4.30;99.90
56076;DHT22;41951;49.022;12.066;2023-01-09T03:50:52;4.30;99.90
56076;DHT22;41951;49.022;12.066;2023-01-09T03:53:19;4.30;99.90
56076;DHT22;41951;49.022;12.066;2023-01-09T03:55:46;4.30;99.90
56076;DHT22;41951;49.022;12.066;2023-01-09T03:58:13;4.30;99.90
56076;DHT22;41951;49.022;12.066;2023-01-09T04:00:39;4.40;99.90
56076;DHT22;41951;49.022;12.066;2023-01-09T04:03:06;4.40;99.90
56076;DHT22;41951;49.022;12.066;2023-01-09T04:05:32;4.40;99.90
56076;DHT22;41951;49.022;12.066;2023-01-09T04:07:58;4.40;99.90
56076;DHT22;41951;49.022;12.066;2023-01-09T04:10:24;4.30;99.90
56076;DHT22;41951;49.022;12.066;2023-01-09T04:12:49;4.30;99.90
56076;DHT22;41951;49.022;12.066;2023-01-09T04:15:15;4.30;99.90
56076;DHT22;41951;49.022;12.066;2023-01-09T04:17:40;4.30;99.90
56076;DHT22;41951;49.022;12.066;2023-01-09T04:20:06;4.30;99.90
56076;DHT22;41951;49.022;12.066;2023-01-09T04:22:32;4.30;99.90
56076;DHT22;41951;49.022;12.066;2023-01-09T04:24:58;4.30;99.90
56076;DHT22;41951;49.022;12.066;2023-01-09T04:27:23;4.30;99.90
56076;DHT22;41951;49.022;12.066;2023-01-09T04:29:49;4.30;99.90
56076;DHT22;41951;49.022;12.066;2023-01-09T04:32:14;4.30;99.90
56076;DHT22;41951;49.022;12.066;2023-01-09T04:34:40;4.30;99.90
56076;DHT22;41951;49.022;12.066;2023-01-09T04:37:05;4.30;99.90
56076;DHT22;41951;49.022;12.066;2023-01-09T04:39:31;4.30;99.90
56076;DHT22;41951;49.022;12.066;2023-01-09T04:41:56;4.30;99.90
56076;DHT22;41951;49.022;12.066;2023-01-09T04:44:23;4.30;99.90
56076;DHT22;41951;49.022;12.066;2023-01-09T04:46:51;4.30;99.90
56076;DHT22;41951;49.022;12.066;2023-01-09T04:49:17;4.30;99.90
56076;DHT22;41951;49.022;12.066;2023-01-09T04:51:42;4.30;99.90
56076;DHT22;41951;49.022;12.066;2023-01-09T04:54:08;4.30;99.90
56076;DHT22;41951;49.022;12.066;2023-01-09T04:56:34;4.30;99.90
56076;DHT22;41951;49.022;12.066;2023-01-09T04:59:00;4.30;99.90
56076;DHT22;41951;49.022;12.066;2023-01-09T05:01:26;4.30;99.90
56076;DHT22;41951;49.022;12.066;2023-01-09T05:03:52;4.30;99.90
56076;DHT22;41951;49.022;12.066;2023-01-09T05:06:17;4.30;99.90
56076;DHT22;41951;49.022;12.066;2023-01-09T05:08:43;4.30;99.90
56076;DHT22;41951;49.022;12.066;2023-01-09T05:11:08;4.30;99.90
56076;DHT22;41951;49.022;12.066;2023-01-09T05:13:34;4.30;99.90
56076;DHT22;41951;49.022;12.066;2023-01-09T05:15:59;4.30;99.90
56076;DHT22;41951;49.022;12.066;2023-01-09T05:18:26;4.30;99.90
56076;DHT22;41951;49.022;12.066;2023-01-09T05:20:51;4.30;99.90
56076;DHT22;41951;49.022;12.066;2023-01-09T05:23:17;4.30;99.90
56076;DHT22;41951;49.022;12.066;2023-01-09T05:25:42;4.30;99.90
56076;DHT22;41951;49.022;12.066;2023-01-09T05:28:08;4.30;99.90
56076;DHT22;41951;49.022;12.066;2023-01-09T05:30:33;4.30;99.90
56076;DHT22;41951;49.022;12.066;2023-01-09T05:32:59;4.30;99.90
56076;DHT22;41951;49.022;12.066;2023-01-09T05:35:25;4.20;99.90
56076;DHT22;41951;49.022;12.066;2023-01-09T05:37:50;4.20;99.90
56076;DHT22;41951;49.022;12.066;2023-01-09T05:40:16;4.20;99.90
56076;DHT22;41951;49.022;12.066;2023-01-09T05:42:43;4.20;99.90
56076;DHT22;41951;49.022;12.066;2023-01-09T05:45:09;4.20;99.90
56076;DHT22;41951;49.022;12.066;2023-01-09T05:47:35;4.30;99.90
56076;DHT22;41951;49.022;12.066;2023-01-09T05:50:01;4.30;99.90
56076;DHT22;41951;49.022;12.066;2023-01-09T05:52:26;4.30;99.90
56076;DHT22;41951;49.022;12.066;2023-01-09T05:54:52;4.30;99.90
56076;DHT22;41951;49.022;12.066;2023-01-09T05:57:18;4.30;99.90
56076;DHT22;41951;49.022;12.066;2023-01-09T05:59:43;4.30;99.90
56076;DHT22;41951;49.022;12.066;2023-01-09T06:02:09;4.30;99.90
56076;DHT22;41951;49.022;12.066;2023-01-09T06:04:34;4.40;99.90
56076;DHT22;41951;49.022;12.066;2023-01-09T06:07:00;4.30;99.90
56076;DHT22;41951;49.022;12.066;2023-01-09T06:09:26;4.30;99.90
56076;DHT22;41951;49.022;12.066;2023-01-09T06:11:51;4.30;99.90
56076;DHT22;41951;49.022;12.066;2023-01-09T06:14:19;4.20;99.90
56076;DHT22;41951;49.022;12.066;2023-01-09T06:16:45;4.20;99.90
56076;DHT22;41951;49.022;12.066;2023-01-09T06:19:10;4.20;99.90
56076;DHT22;41951;49.022;12.066;2023-01-09T06:21:36;4.30;99.90
56076;DHT22;41951;49.022;12.066;2023-01-09T06:24:01;4.30;99.90
56076;DHT22;41951;49.022;12.066;2023-01-09T06:26:27;4.30;99.90
56076;DHT22;41951;49.022;12.066;2023-01-09T06:28:53;4.30;99.90
56076;DHT22;41951;49.022;12.066;2023-01-09T06:31:21;4.30;99.90
56076;DHT22;41951;49.022;12.066;2023-01-09T06:33:46;4.40;99.90
56076;DHT22;41951;49.022;12.066;2023-01-09T06:36:12;4.40;99.90
56076;DHT22;41951;49.022;12.066;2023-01-09T06:38:38;4.40;99.90
56076;DHT22;41951;49.022;12.066;2023-01-09T06:41:04;4.40;99.90
56076;DHT22;41951;49.022;12.066;2023-01-09T06:43:29;4.50;99.90
56076;DHT22;41951;49.022;12.066;2023-01-09T06:45:55;4.40;99.90
56076;DHT22;41951;49.022;12.066;2023-01-09T06:48:21;4.40;99.90
56076;DHT22;41951;49.022;12.066;2023-01-09T06:50:52;4.50;99.90
56076;DHT22;41951;49.022;12.066;2023-01-09T06:53:17;4.50;99.90
56076;DHT22;41951;49.022;12.066;2023-01-09T06:55:44;4.50;99.90
56076;DHT22;41951;49.022;12.066;2023-01-09T06:58:09;4.50;99.90
56076;DHT22;41951;49.022;12.066;2023-01-09T07:00:35;4.50;99.90
56076;DHT22;41951;49.022;12.066;2023-01-09T07:03:01;4.50;99.90
56076;DHT22;41951;49.022;12.066;2023-01-09T07:05:26;4.50;99.90
56076;DHT22;41951;49.022;12.066;2023-01-09T07:07:52;4.50;99.90
56076;DHT22;41951;49.022;12.066;2023-01-09T07:10:18;4.60;99.90
56076;DHT22;41951;49.022;12.066;2023-01-09T07:12:43;4.60;99.90
56076;DHT22;41951;49.022;12.066;2023-01-09T07:15:09;4.60;99.90
56076;DHT22;41951;49.022;12.066;2023-01-09T07:17:35;4.60;99.90
56076;DHT22;41951;49.022;12.066;2023-01-09T07:20:00;4.60;99.90
56076;DHT22;41951;49.022;12.066;2023-01-09T07:22:26;4.60;99.90
56076;DHT22;41951;49.022;12.066;2023-01-09T07:24:52;4.60;99.90
56076;DHT22;41951;49.022;12.066;2023-01-09T07:27:17;4.60;99.90
56076;DHT22;41951;49.022;12.066;2023-01-09T07:29:43;4.70;99.90
56076;DHT22;41951;49.022;12.066;2023-01-09T07:32:09;4.70;99.90
56076;DHT22;41951;49.022;12.066;2023-01-09T07:34:34;4.70;99.90
56076;DHT22;41951;49.022;12.066;2023-01-09T07:37:00;4.80;99.90
56076;DHT22;41951;49.022;12.066;2023-01-09T07:39:26;4.80;99.90
56076;DHT22;41951;49.022;12.066;2023-01-09T07:41:51;4.80;99.90
56076;DHT22;41951;49.022;12.066;2023-01-09T07:44:17;4.90;99.90
56076;DHT22;41951;49.022;12.066;2023-01-09T07:46:43;5.00;99.90
56076;DHT22;41951;49.022;12.066;2023-01-09T07:49:08;5.10;99.90
56076;DHT22;41951;49.022;12.066;2023-01-09T07:51:34;5.10;99.90
56076;DHT22;41951;49.022;12.066;2023-01-09T07:54:00;5.20;99.90
56076;DHT22;41951;49.022;12.066;2023-01-09T07:56:25;5.20;99.90
56076;DHT22;41951;49.022;12.066;2023-01-09T07:58:51;5.30;99.90
56076;DHT22;41951;49.022;12.066;2023-01-09T08:01:17;5.30;99.90
56076;DHT22;41951;49.022;12.066;2023-01-09T08:03:42;5.30;99.90
56076;DHT22;41951;49.022;12.066;2023-01-09T08:06:08;5.40;99.90
56076;DHT22;41951;49.022;12.066;2023-01-09T08:08:34;5.40;99.90
56076;DHT22;41951;49.022;12.066;2023-01-09T08:11:00;5.50;99.90
56076;DHT22;41951;49.022;12.066;2023-01-09T08:13:25;5.50;99.90
56076;DHT22;41951;49.022;12.066;2023-01-09T08:15:51;5.60;99.90
56076;DHT22;41951;49.022;12.066;2023-01-09T08:18:17;5.60;99.90
56076;DHT22;41951;49.022;12.066;2023-01-09T08:20:42;5.60;99.90
56076;DHT22;41951;49.022;12.066;2023-01-09T08:23:08;5.60;99.90
56076;DHT22;41951;49.022;12.066;2023-01-09T08:25:33;5.60;99.90
56076;DHT22;41951;49.022;12.066;2023-01-09T08:27:59;5.60;99.90
56076;DHT22;41951;49.022;12.066;2023-01-09T08:30:25;5.70;99.90
56076;DHT22;41951;49.022;12.066;2023-01-09T08:32:51;5.70;99.90
56076;DHT22;41951;49.022;12.066;2023-01-09T08:35:18;5.70;99.90
56076;DHT22;41951;49.022;12.066;2023-01-09T08:37:44;5.70;99.90
56076;DHT22;41951;49.022;12.066;2023-01-09T08:40:11;5.80;99.90
56076;DHT22;41951;49.022;12.066;2023-01-09T08:42:37;5.90;99.90
56076;DHT22;41951;49.022;12.066;2023-01-09T08:45:22;5.90;99.90
56076;DHT22;41951;49.022;12.066;2023-01-09T08:48:06;5.90;99.90
56076;DHT22;41951;49.022;12.066;2023-01-09T08:50:32;6.00;99.90
56076;DHT22;41951;49.022;12.066;2023-01-09T08:52:57;6.00;99.90
56076;DHT22;41951;49.022;12.066;2023-01-09T08:55:23;6.10;99.90
56076;DHT22;41951;49.022;12.066;2023-01-09T08:57:50;6.20;99.90
56076;DHT22;41951;49.022;12.066;2023-01-09T09:00:17;6.10;99.90
56076;DHT22;41951;49.022;12.066;2023-01-09T09:02:43;6.20;99.90
56076;DHT22;41951;49.022;12.066;2023-01-09T09:05:09;6.20;99.90
56076;DHT22;41951;49.022;12.066;2023-01-09T09:07:35;6.10;99.90
56076;DHT22;41951;49.022;12.066;2023-01-09T09:10:00;6.20;99.90
56076;DHT22;41951;49.022;12.066;2023-01-09T09:12:26;6.20;99.90
56076;DHT22;41951;49.022;12.066;2023-01-09T09:14:52;6.20;99.90
56076;DHT22;41951;49.022;12.066;2023-01-09T09:17:37;6.20;99.90
56076;DHT22;41951;49.022;12.066;2023-01-09T09:20:05;6.10;99.90
56076;DHT22;41951;49.022;12.066;2023-01-09T09:22:31;6.20;99.90
56076;DHT22;41951;49.022;12.066;2023-01-09T09:24:56;6.10;99.90
56076;DHT22;41951;49.022;12.066;2023-01-09T09:27:22;6.20;99.90
56076;DHT22;41951;49.022;12.066;2023-01-09T09:29:47;6.10;99.90
56076;DHT22;41951;49.022;12.066;2023-01-09T09:32:13;6.20;99.90
56076;DHT22;41951;49.022;12.066;2023-01-09T09:34:38;6.20;99.90
56076;DHT22;41951;49.022;12.066;2023-01-09T09:37:04;6.20;99.90
56076;DHT22;41951;49.022;12.066;2023-01-09T09:39:30;6.20;99.90
56076;DHT22;41951;49.022;12.066;2023-01-09T09:55:51;6.40;99.90
56076;DHT22;41951;49.022;12.066;2023-01-09T09:58:21;6.40;99.90
56076;DHT22;41951;49.022;12.066;2023-01-09T10:00:50;6.40;99.90
56076;DHT22;41951;49.022;12.066;2023-01-09T10:03:39;6.40;99.90
56076;DHT22;41951;49.022;12.066;2023-01-09T10:06:14;6.40;99.90
56076;DHT22;41951;49.022;12.066;2023-01-09T10:08:56;6.40;99.90
56076;DHT22;41951;49.022;12.066;2023-01-09T10:14:18;6.40;99.90
56076;DHT22;41951;49.022;12.066;2023-01-09T10:26:52;6.50;99.90
56076;DHT22;41951;49.022;12.066;2023-01-09T10:32:28;6.50;99.90
56076;DHT22;41951;49.022;12.066;2023-01-09T10:37:45;6.50;99.90
56076;DHT22;41951;49.022;12.066;2023-01-09T10:40:31;6.50;99.90
56076;DHT22;41951;49.022;12.066;2023-01-09T10:43:45;6.50;99.90
56076;DHT22;41951;49.022;12.066;2023-01-09T10:45:52;6.50;99.90
56076;DHT22;41951;49.022;12.066;2023-01-09T10:48:37;6.50;99.90
56076;DHT22;41951;49.022;12.066;2023-01-09T10:51:16;6.50;99.90
56076;DHT22;41951;49.022;12.066;2023-01-09T10:53:45;6.40;99.90
56076;DHT22;41951;49.022;12.066;2023-01-09T10:56:23;6.40;99.90
56076;DHT22;41951;49.022;12.066;2023-01-09T10:58:51;6.40;99.90
56076;DHT22;41951;49.022;12.066;2023-01-09T11:01:30;6.50;99.90
56076;DHT22;41951;49.022;12.066;2023-01-09T11:03:56;6.40;99.90
56076;DHT22;41951;49.022;12.066;2023-01-09T11:06:59;6.50;99.90
56076;DHT22;41951;49.022;12.066;2023-01-09T11:09:27;6.50;99.90
56076;DHT22;41951;49.022;12.066;2023-01-09T11:11:52;6.50;99.90
56076;DHT22;41951;49.022;12.066;2023-01-09T11:14:26;6.50;99.90
56076;DHT22;41951;49.022;12.066;2023-01-09T11:16:57;6.50;99.90
56076;DHT22;41951;49.022;12.066;2023-01-09T11:19:24;6.60;99.90
56076;DHT22;41951;49.022;12.066;2023-01-09T11:22:14;6.60;99.90
56076;DHT22;41951;49.022;12.066;2023-01-09T11:24:41;6.60;99.90
56076;DHT22;41951;49.022;12.066;2023-01-09T11:29:41;6.70;99.90
56076;DHT22;41951;49.022;12.066;2023-01-09T11:32:21;6.70;99.90
56076;DHT22;41951;49.022;12.066;2023-01-09T11:34:47;6.70;99.90
56076;DHT22;41951;49.022;12.066;2023-01-09T11:37:21;6.70;99.90
56076;DHT22;41951;49.022;12.066;2023-01-09T11:39:49;6.80;99.90
56076;DHT22;41951;49.022;12.066;2023-01-09T11:42:21;6.80;99.90
56076;DHT22;41951;49.022;12.066;2023-01-09T11:47:39;6.80;99.90
56076;DHT22;41951;49.022;12.066;2023-01-09T11:50:20;6.80;99.90
56076;DHT22;41951;49.022;12.066;2023-01-09T11:53:16;6.80;99.90
56076;DHT22;41951;49.022;12.066;2023-01-09T11:55:43;6.80;99.90
56076;DHT22;41951;49.022;12.066;2023-01-09T11:58:17;6.80;99.90
56076;DHT22;41951;49.022;12.066;2023-01-09T12:06:23;6.80;99.90
56076;DHT22;41951;49.022;12.066;2023-01-09T12:09:07;6.80;99.90
56076;DHT22;41951;49.022;12.066;2023-01-09T12:14:43;6.90;99.90
56076;DHT22;41951;49.022;12.066;2023-01-09T12:17:27;6.90;99.90
56076;DHT22;41951;49.022;12.066;2023-01-09T12:20:21;6.90;99.90
56076;DHT22;41951;49.022;12.066;2023-01-09T12:26:14;6.80;99.90
56076;DHT22;41951;49.022;12.066;2023-01-09T12:31:38;6.80;99.90
56076;DHT22;41951;49.022;12.066;2023-01-09T12:34:21;6.80;99.90
56076;DHT22;41951;49.022;12.066;2023-01-09T12:36:56;6.80;99.90
56076;DHT22;41951;49.022;12.066;2023-01-09T12:39:34;6.80;99.90
56076;DHT22;41951;49.022;12.066;2023-01-09T12:47:41;6.80;99.90
56076;DHT22;41951;49.022;12.066;2023-01-09T12:53:11;6.80;99.90
56076;DHT22;41951;49.022;12.066;2023-01-09T12:55:42;6.80;99.90
56076;DHT22;41951;49.022;12.066;2023-01-09T12:58:34;6.80;99.90
56076;DHT22;41951;49.022;12.066;2023-01-09T13:01:04;6.80;99.90
56076;DHT22;41951;49.022;12.066;2023-01-09T13:03:49;6.80;99.90
56076;DHT22;41951;49.022;12.066;2023-01-09T13:06:18;6.80;99.90
56076;DHT22;41951;49.022;12.066;2023-01-09T13:09:04;6.80;99.90
56076;DHT22;41951;49.022;12.066;2023-01-09T13:11:36;6.80;99.90
56076;DHT22;41951;49.022;12.066;2023-01-09T13:14:10;6.90;99.90
56076;DHT22;41951;49.022;12.066;2023-01-09T13:16:42;7.00;99.90
56076;DHT22;41951;49.022;12.066;2023-01-09T13:19:36;7.00;99.90
56076;DHT22;41951;49.022;12.066;2023-01-09T13:22:05;7.00;99.90
56076;DHT22;41951;49.022;12.066;2023-01-09T13:27:23;7.00;99.90
56076;DHT22;41951;49.022;12.066;2023-01-09T13:29:57;7.00;99.90
56076;DHT22;41951;49.022;12.066;2023-01-09T13:35:24;7.00;99.90
56076;DHT22;41951;49.022;12.066;2023-01-09T13:37:51;7.00;99.90
56076;DHT22;41951;49.022;12.066;2023-01-09T13:42:43;7.00;99.90
56076;DHT22;41951;49.022;12.066;2023-01-09T13:45:20;7.00;99.90
56076;DHT22;41951;49.022;12.066;2023-01-09T13:48:05;7.00;99.90
56076;DHT22;41951;49.022;12.066;2023-01-09T13:50:32;7.00;99.90
56076;DHT22;41951;49.022;12.066;2023-01-09T13:58:32;7.00;99.90
56076;DHT22;41951;49.022;12.066;2023-01-09T14:06:38;7.10;99.90
56076;DHT22;41951;49.022;12.066;2023-01-09T14:09:17;7.10;99.90
56076;DHT22;41951;49.022;12.066;2023-01-09T14:11:45;7.20;99.90
56076;DHT22;41951;49.022;12.066;2023-01-09T14:14:27;7.20;99.90
56076;DHT22;41951;49.022;12.066;2023-01-09T14:16:53;7.30;99.90
56076;DHT22;41951;49.022;12.066;2023-01-09T14:19:37;7.30;99.90
56076;DHT22;41951;49.022;12.066;2023-01-09T14:22:04;7.30;99.90
56076;DHT22;41951;49.022;12.066;2023-01-09T14:24:42;7.30;99.90
56076;DHT22;41951;49.022;12.066;2023-01-09T14:33:23;7.20;99.90
56076;DHT22;41951;49.022;12.066;2023-01-09T14:41:19;7.10;99.90
56076;DHT22;41951;49.022;12.066;2023-01-09T14:44:27;7.10;99.90
56076;DHT22;41951;49.022;12.066;2023-01-09T14:46:55;7.10;99.90
56076;DHT22;41951;49.022;12.066;2023-01-09T14:49:32;7.00;99.90
56076;DHT22;41951;49.022;12.066;2023-01-09T14:52:02;7.00;99.90
56076;DHT22;41951;49.022;12.066;2023-01-09T14:54:36;7.00;99.90
56076;DHT22;41951;49.022;12.066;2023-01-09T14:57:02;6.90;99.90
56076;DHT22;41951;49.022;12.066;2023-01-09T15:00:14;6.90;99.90
56076;DHT22;41951;49.022;12.066;2023-01-09T15:02:40;6.90;99.90
56076;DHT22;41951;49.022;12.066;2023-01-09T15:05:13;6.80;99.90
56076;DHT22;41951;49.022;12.066;2023-01-09T15:07:47;6.80;99.90
56076;DHT22;41951;49.022;12.066;2023-01-09T15:10:23;6.70;99.90
56076;DHT22;41951;49.022;12.066;2023-01-09T15:12:52;6.70;99.90
56076;DHT22;41951;49.022;12.066;2023-01-09T15:15:20;6.70;99.90
56076;DHT22;41951;49.022;12.066;2023-01-09T15:17:54;6.70;99.90
56076;DHT22;41951;49.022;12.066;2023-01-09T15:20:23;6.60;99.90
56076;DHT22;41951;49.022;12.066;2023-01-09T15:22:50;6.70;99.90
56076;DHT22;41951;49.022;12.066;2023-01-09T15:25:31;6.60;99.90
56076;DHT22;41951;49.022;12.066;2023-01-09T15:27:58;6.60;99.90
56076;DHT22;41951;49.022;12.066;2023-01-09T15:30:29;6.50;99.90
56076;DHT22;41951;49.022;12.066;2023-01-09T15:33:11;6.50;99.90
56076;DHT22;41951;49.022;12.066;2023-01-09T15:35:47;6.40;99.90
56076;DHT22;41951;49.022;12.066;2023-01-09T15:38:17;6.40;99.90
56076;DHT22;41951;49.022;12.066;2023-01-09T15:40:52;6.30;99.90
56076;DHT22;41951;49.022;12.066;2023-01-09T15:43:18;6.30;99.90
56076;DHT22;41951;49.022;12.066;2023-01-09T15:45:44;6.30;99.90
56076;DHT22;41951;49.022;12.066;2023-01-09T15:48:14;6.20;99.90
56076;DHT22;41951;49.022;12.066;2023-01-09T15:50:41;6.20;99.90
56076;DHT22;41951;49.022;12.066;2023-01-09T15:53:14;6.10;99.90
56076;DHT22;41951;49.022;12.066;2023-01-09T15:55:39;6.10;99.90
56076;DHT22;41951;49.022;12.066;2023-01-09T15:58:27;6.10;99.90
56076;DHT22;41951;49.022;12.066;2023-01-09T16:01:00;6.10;99.90
56076;DHT22;41951;49.022;12.066;2023-01-09T16:03:26;6.10;99.90
56076;DHT22;41951;49.022;12.066;2023-01-09T16:05:59;6.10;99.90
56076;DHT22;41951;49.022;12.066;2023-01-09T16:08:36;6.10;99.90
56076;DHT22;41951;49.022;12.066;2023-01-09T16:11:06;6.10;99.90
56076;DHT22;41951;49.022;12.066;2023-01-09T16:13:43;6.10;99.90
56076;DHT22;41951;49.022;12.066;2023-01-09T16:16:10;6.10;99.90
56076;DHT22;41951;49.022;12.066;2023-01-09T16:18:38;6.10;99.90
56076;DHT22;41951;49.022;12.066;2023-01-09T16:21:36;6.10;99.90
56076;DHT22;41951;49.022;12.066;2023-01-09T16:26:32;6.00;99.90
56076;DHT22;41951;49.022;12.066;2023-01-09T16:29:33;6.00;99.90
56076;DHT22;41951;49.022;12.066;2023-01-09T16:32:05;6.00;99.90
56076;DHT22;41951;49.022;12.066;2023-01-09T16:34:33;6.00;99.90
56076;DHT22;41951;49.022;12.066;2023-01-09T16:36:59;6.00;99.90
56076;DHT22;41951;49.022;12.066;2023-01-09T16:39:27;6.00;99.90
56076;DHT22;41951;49.022;12.066;2023-01-09T16:41:55;6.10;99.90
56076;DHT22;41951;49.022;12.066;2023-01-09T16:44:40;6.10;99.90
56076;DHT22;41951;49.022;12.066;2023-01-09T16:47:09;6.10;99.90
56076;DHT22;41951;49.022;12.066;2023-01-09T16:49:35;6.10;99.90
56076;DHT22;41951;49.022;12.066;2023-01-09T16:52:01;6.10;99.90
56076;DHT22;41951;49.022;12.066;2023-01-09T16:54:27;6.10;99.90
56076;DHT22;41951;49.022;12.066;2023-01-09T16:56:53;6.10;99.90
56076;DHT22;41951;49.022;12.066;2023-01-09T16:59:22;6.10;99.90
56076;DHT22;41951;49.022;12.066;2023-01-09T17:01:51;6.10;99.90
56076;DHT22;41951;49.022;12.066;2023-01-09T17:04:17;6.10;99.90
56076;DHT22;41951;49.022;12.066;2023-01-09T17:06:45;6.10;99.90
56076;DHT22;41951;49.022;12.066;2023-01-09T17:09:14;6.10;99.90
56076;DHT22;41951;49.022;12.066;2023-01-09T17:11:40;6.10;99.90
56076;DHT22;41951;49.022;12.066;2023-01-09T17:14:08;6.00;99.90
56076;DHT22;41951;49.022;12.066;2023-01-09T17:16:34;6.00;99.90
56076;DHT22;41951;49.022;12.066;2023-01-09T17:19:03;6.00;99.90
56076;DHT22;41951;49.022;12.066;2023-01-09T17:21:29;5.90;99.90
56076;DHT22;41951;49.022;12.066;2023-01-09T17:23:56;5.90;99.90
56076;DHT22;41951;49.022;12.066;2023-01-09T17:26:43;5.90;99.90
56076;DHT22;41951;49.022;12.066;2023-01-09T17:29:28;5.80;99.90
56076;DHT22;41951;49.022;12.066;2023-01-09T17:31:54;5.80;99.90
56076;DHT22;41951;49.022;12.066;2023-01-09T17:34:20;5.70;99.90
56076;DHT22;41951;49.022;12.066;2023-01-09T17:36:46;5.70;99.90
56076;DHT22;41951;49.022;12.066;2023-01-09T17:39:16;5.70;99.90
56076;DHT22;41951;49.022;12.066;2023-01-09T17:41:42;5.70;99.90
56076;DHT22;41951;49.022;12.066;2023-01-09T17:44:10;5.70;99.90
56076;DHT22;41951;49.022;12.066;2023-01-09T17:46:37;5.60;99.90